Time;durP1;ratioP1;P1;durP2;ratioP2;P2;SDS_P1;SDS_P2;PMS_P1;PMS_P2;Temp;Humidity;BMP_temperature;BMP_pressure;BME280_temperature;BME280_humidity;BME280_pressure;Samples;Min_cycle;Max_cycle;Signal;HPM_P1;HPM_P2
2021/12/28 00:01:38;;;;;;;2.40;2.20;;;7.40;93.10;;;;;;5056581;28;20571;-60
2021/12/28 00:04:07;;;;;;;7.00;2.47;;;7.40;93.30;;;;;;5056720;28;20681;-57
2021/12/28 00:06:34;;;;;;;3.33;2.10;;;7.40;93.30;;;;;;5056694;28;20205;-58
2021/12/28 00:09:01;;;;;;;2.75;1.80;;;7.50;93.10;;;;;;5055229;28;20212;-57
2021/12/28 00:11:28;;;;;;;4.72;2.20;;;7.50;92.80;;;;;;5056295;28;20231;-57
2021/12/28 00:14:00;;;;;;;2.53;2.00;;;7.40;92.70;;;;;;5056500;28;20591;-59
2021/12/28 00:17:58;;;;;;;3.47;2.25;;;7.40;92.90;;;;;;5056223;28;20210;-56
2021/12/28 00:19:22;;;;;;;4.05;1.58;;;7.40;92.90;;;;;;5056298;28;20243;-54
2021/12/28 00:21:49;;;;;;;2.85;2.00;;;7.40;92.50;;;;;;5056240;28;20216;-57
2021/12/28 00:24:16;;;;;;;2.30;2.10;;;7.50;92.30;;;;;;5055044;28;20209;-57
2021/12/28 00:26:43;;;;;;;3.33;2.45;;;7.50;92.10;;;;;;5056185;28;20205;-58
2021/12/28 00:29:10;;;;;;;1.80;1.70;;;7.50;92.10;;;;;;5056196;28;20288;-58
2021/12/28 00:31:37;;;;;;;8.50;1.75;;;7.50;92.10;;;;;;5056096;28;20211;-57
2021/12/28 00:34:04;;;;;;;5.13;1.88;;;7.60;91.80;;;;;;5056063;28;20239;-55
2021/12/28 00:36:32;;;;;;;3.58;1.83;;;7.50;91.60;;;;;;5055987;28;20300;-58
2021/12/28 00:39:00;;;;;;;2.97;2.03;;;7.60;91.50;;;;;;5054805;28;20201;-55
2021/12/28 00:41:27;;;;;;;2.30;2.10;;;7.60;91.20;;;;;;5055918;28;20252;-55
2021/12/28 00:43:54;;;;;;;2.28;1.70;;;7.60;91.30;;;;;;5055943;28;20205;-55
2021/12/28 00:46:21;;;;;;;3.45;1.90;;;7.60;91.00;;;;;;5055697;28;20254;-58
2021/12/28 00:48:48;;;;;;;6.10;1.90;;;7.70;91.00;;;;;;5055912;28;20210;-58
2021/12/28 00:51:15;;;;;;;4.93;1.92;;;7.60;90.70;;;;;;5055704;28;20675;-58
2021/12/28 00:53:43;;;;;;;2.20;1.75;;;7.70;90.40;;;;;;5055624;28;20235;-57
2021/12/28 00:56:10;;;;;;;5.10;2.10;;;7.70;90.20;;;;;;5054280;28;20764;-57
2021/12/28 00:58:37;;;;;;;7.10;2.03;;;7.70;90.00;;;;;;5055757;28;20643;-58
2021/12/28 01:01:04;;;;;;;2.75;1.75;;;7.70;89.80;;;;;;5055416;28;20664;-57
2021/12/28 01:03:34;;;;;;;4.90;2.00;;;7.60;90.00;;;;;;5055433;28;20288;-57
2021/12/28 01:06:01;;;;;;;5.13;1.80;;;7.60;90.30;;;;;;5055584;28;20229;-59
2021/12/28 01:08:28;;;;;;;6.93;2.10;;;7.80;90.20;;;;;;5055472;28;20216;-57
2021/12/28 01:10:58;;;;;;;7.90;2.00;;;7.80;89.80;;;;;;5053828;28;20333;-60
2021/12/28 01:13:25;;;;;;;8.90;1.73;;;7.90;89.50;;;;;;5055288;28;20233;-59
2021/12/28 01:15:53;;;;;;;5.28;1.90;;;7.90;89.40;;;;;;5055165;28;20292;-58
2021/12/28 01:18:21;;;;;;;3.20;2.03;;;8.00;89.20;;;;;;5055225;28;20209;-60
2021/12/28 01:20:48;;;;;;;5.95;2.30;;;8.00;89.00;;;;;;5055269;28;20652;-60
2021/12/28 01:23:15;;;;;;;4.45;1.98;;;8.00;88.60;;;;;;5055344;28;20205;-56
2021/12/28 01:25:42;;;;;;;3.58;3.28;;;8.10;88.80;;;;;;5054039;28;20296;-58
2021/12/28 01:28:10;;;;;;;7.65;2.45;;;8.10;88.80;;;;;;5055125;28;20208;-59
2021/12/28 01:30:40;;;;;;;4.10;1.80;;;8.10;88.60;;;;;;5054975;28;20690;-58
2021/12/28 01:33:07;;;;;;;2.97;1.95;;;8.20;88.60;;;;;;5054940;28;20687;-59
2021/12/28 01:35:35;;;;;;;3.55;1.95;;;8.20;88.40;;;;;;5055061;28;20205;-56
2021/12/28 01:38:02;;;;;;;3.80;1.98;;;8.20;87.90;;;;;;5054865;28;20212;-58
2021/12/28 01:40:31;;;;;;;2.65;2.03;;;8.10;87.90;;;;;;5053735;28;20204;-60
2021/12/28 01:43:02;;;;;;;2.42;1.85;;;8.00;88.10;;;;;;5055017;28;20211;-59
2021/12/28 01:45:37;;;;;;;8.45;2.55;;;7.90;88.40;;;;;;5054538;28;20308;-55
2021/12/28 01:48:05;;;;;;;5.22;2.00;;;7.80;88.80;;;;;;5054824;28;20702;-59
2021/12/28 01:50:32;;;;;;;6.25;2.42;;;7.70;88.90;;;;;;5054675;28;20652;-55
2021/12/28 01:52:59;;;;;;;3.80;1.95;;;7.70;89.20;;;;;;5054588;28;20235;-57
2021/12/28 01:55:26;;;;;;;4.30;2.30;;;7.70;89.00;;;;;;5053358;28;20240;-56
2021/12/28 01:57:53;;;;;;;3.60;2.25;;;7.60;89.00;;;;;;5054384;28;20205;-55
2021/12/28 02:00:20;;;;;;;3.55;2.22;;;7.70;89.40;;;;;;5054497;28;20208;-59
2021/12/28 02:02:48;;;;;;;2.97;2.20;;;7.70;89.20;;;;;;5054486;28;20213;-58
2021/12/28 02:05:15;;;;;;;3.17;2.20;;;7.70;89.30;;;;;;5054493;28;20211;-57
2021/12/28 02:07:42;;;;;;;6.60;2.60;;;7.70;89.20;;;;;;5054348;28;20197;-58
2021/12/28 02:10:10;;;;;;;3.10;2.00;;;7.70;89.50;;;;;;5052907;28;20239;-56
2021/12/28 02:12:37;;;;;;;7.72;2.40;;;7.80;88.90;;;;;;5054048;28;20201;-59
2021/12/28 02:15:08;;;;;;;4.75;2.20;;;7.80;88.90;;;;;;5054304;28;20208;-57
2021/12/28 02:17:35;;;;;;;5.70;2.40;;;7.70;88.60;;;;;;5054140;28;20209;-57
2021/12/28 02:20:07;;;;;;;8.88;2.60;;;7.70;88.60;;;;;;5054164;28;20205;-56
2021/12/28 02:22:34;;;;;;;4.80;2.10;;;7.80;88.60;;;;;;5053586;28;20211;-56
2021/12/28 02:25:01;;;;;;;4.78;2.30;;;7.70;88.50;;;;;;5052649;28;20208;-58
2021/12/28 02:27:29;;;;;;;7.40;2.80;;;7.60;88.30;;;;;;5054025;28;20233;-54
2021/12/28 02:29:57;;;;;;;3.15;2.25;;;7.60;88.70;;;;;;5053895;28;20206;-59
2021/12/28 02:32:27;;;;;;;6.00;2.47;;;7.60;88.40;;;;;;5053749;28;20219;-53
2021/12/28 02:34:54;;;;;;;8.77;2.53;;;7.50;88.50;;;;;;5053844;28;20229;-57
2021/12/28 02:37:24;;;;;;;7.35;2.78;;;7.40;88.80;;;;;;5053838;28;20301;-59
2021/12/28 02:39:51;;;;;;;5.07;2.47;;;7.40;89.10;;;;;;5052391;28;20209;-59
2021/12/28 02:42:18;;;;;;;5.43;2.38;;;7.40;89.00;;;;;;5053763;28;20210;-53
2021/12/28 02:44:45;;;;;;;7.38;2.58;;;7.50;88.70;;;;;;5053776;28;20227;-54
2021/12/28 02:47:17;;;;;;;10.07;2.40;;;7.40;88.70;;;;;;5053510;28;20207;-54
2021/12/28 02:49:44;;;;;;;9.38;2.70;;;7.50;88.80;;;;;;5053613;28;20201;-57
2021/12/28 02:52:11;;;;;;;4.18;2.58;;;7.50;88.60;;;;;;5053490;28;20201;-55
2021/12/28 02:54:40;;;;;;;7.97;2.63;;;7.50;88.70;;;;;;5052332;28;20240;-59
2021/12/28 02:57:08;;;;;;;3.75;2.33;;;7.60;88.40;;;;;;5053666;28;20201;-58
2021/12/28 02:59:34;;;;;;;6.22;2.40;;;7.60;88.40;;;;;;5053422;28;20201;-56
2021/12/28 03:02:01;;;;;;;5.72;2.90;;;7.60;88.00;;;;;;5053310;28;20197;-57
2021/12/28 03:04:28;;;;;;;5.05;2.42;;;7.60;88.10;;;;;;5053318;28;20233;-57
2021/12/28 03:06:55;;;;;;;5.43;2.40;;;7.60;87.70;;;;;;5053252;28;20244;-54
2021/12/28 03:09:23;;;;;;;5.18;2.53;;;7.60;87.80;;;;;;5051796;28;20205;-58
2021/12/28 03:11:52;;;;;;;3.17;1.90;;;7.60;87.60;;;;;;5053201;28;20254;-60
2021/12/28 03:14:19;;;;;;;3.60;2.30;;;7.60;87.90;;;;;;5053074;28;20233;-59
2021/12/28 03:16:45;;;;;;;5.40;2.40;;;7.60;87.60;;;;;;5052998;28;20205;-55
2021/12/28 03:19:12;;;;;;;7.50;2.50;;;7.60;87.70;;;;;;5053164;28;20201;-59
2021/12/28 03:21:41;;;;;;;3.60;2.33;;;7.60;87.70;;;;;;5053118;28;20205;-56
2021/12/28 03:24:09;;;;;;;5.57;2.40;;;7.50;87.50;;;;;;5051938;28;20205;-54
2021/12/28 03:26:37;;;;;;;2.80;2.40;;;7.50;87.80;;;;;;5052995;28;20202;-57
2021/12/28 03:29:06;;;;;;;6.13;2.40;;;7.50;88.00;;;;;;5053060;28;20212;-59
2021/12/28 03:31:33;;;;;;;3.13;2.30;;;7.60;87.90;;;;;;5052879;28;20212;-57
2021/12/28 03:34:00;;;;;;;6.93;2.65;;;7.60;87.50;;;;;;5051865;28;20232;-58
2021/12/28 03:36:29;;;;;;;3.88;2.35;;;7.60;87.30;;;;;;5052720;28;20211;-54
2021/12/28 03:38:57;;;;;;;2.58;1.90;;;7.60;87.10;;;;;;5052213;28;20227;-54
2021/12/28 03:41:26;;;;;;;10.63;2.70;;;7.60;87.20;;;;;;5052582;28;20209;-57
2021/12/28 03:43:55;;;;;;;8.15;2.40;;;7.60;87.00;;;;;;5052815;28;20208;-60
2021/12/28 03:46:26;;;;;;;4.60;2.20;;;7.60;87.00;;;;;;5052389;28;20201;-57
2021/12/28 03:48:53;;;;;;;3.88;2.40;;;7.60;87.20;;;;;;5052795;28;20215;-55
2021/12/28 03:51:20;;;;;;;7.38;2.55;;;7.60;87.00;;;;;;5052740;28;20208;-58
2021/12/28 03:53:48;;;;;;;4.80;2.28;;;7.70;86.60;;;;;;5052476;28;20237;-58
2021/12/28 03:56:15;;;;;;;4.10;2.17;;;7.70;86.40;;;;;;5051399;28;20205;-59
2021/12/28 03:58:44;;;;;;;5.68;2.13;;;7.70;86.40;;;;;;5052527;28;20229;-56
2021/12/28 04:01:13;;;;;;;5.88;2.20;;;7.70;86.10;;;;;;5052458;28;20201;-60
2021/12/28 04:03:42;;;;;;;4.78;2.20;;;7.70;86.00;;;;;;5052620;28;20205;-59
2021/12/28 04:06:10;;;;;;;5.90;2.15;;;7.70;86.10;;;;;;5052613;28;20202;-59
2021/12/28 04:08:38;;;;;;;2.85;2.20;;;7.70;86.10;;;;;;5052501;28;20237;-57
2021/12/28 04:11:15;;;;;;;4.40;2.20;;;7.70;86.10;;;;;;5051046;28;20265;-58
2021/12/28 04:13:43;;;;;;;3.63;2.70;;;7.80;86.20;;;;;;5052367;28;20229;-56
2021/12/28 04:16:10;;;;;;;4.35;2.58;;;7.80;85.90;;;;;;5052314;28;20224;-56
2021/12/28 04:18:37;;;;;;;2.42;2.05;;;7.80;85.80;;;;;;5052461;28;20208;-57
2021/12/28 04:21:06;;;;;;;5.20;2.65;;;7.70;85.80;;;;;;5052417;28;20205;-56
2021/12/28 04:23:33;;;;;;;4.28;2.40;;;7.60;86.20;;;;;;5052483;28;20227;-57
2021/12/28 04:26:00;;;;;;;3.35;2.20;;;7.60;86.70;;;;;;5050961;28;20237;-57
2021/12/28 04:28:27;;;;;;;5.57;2.30;;;7.60;86.50;;;;;;5052339;28;20231;-57
2021/12/28 04:30:54;;;;;;;5.40;2.00;;;7.60;86.80;;;;;;5052145;28;20296;-58
2021/12/28 04:33:21;;;;;;;3.97;2.58;;;7.60;86.70;;;;;;5052291;28;20201;-58
2021/12/28 04:35:48;;;;;;;2.65;2.03;;;7.50;86.80;;;;;;5052320;28;20208;-55
2021/12/28 04:38:17;;;;;;;4.68;2.67;;;7.50;87.30;;;;;;5052222;28;20564;-58
2021/12/28 04:40:44;;;;;;;4.10;2.13;;;7.40;87.50;;;;;;5050772;28;20209;-57
2021/12/28 04:43:12;;;;;;;4.10;2.35;;;7.40;88.10;;;;;;5052237;28;20201;-57
2021/12/28 04:45:39;;;;;;;3.97;2.10;;;7.40;88.30;;;;;;5053146;28;20241;-59
2021/12/28 04:48:07;;;;;;;3.38;2.25;;;7.40;88.30;;;;;;5055708;28;20280;-57
2021/12/28 04:50:37;;;;;;;3.53;2.15;;;7.30;88.60;;;;;;5055796;28;20202;-57
2021/12/28 04:53:08;;;;;;;2.85;2.00;;;7.30;88.90;;;;;;5055651;28;20206;-58
2021/12/28 04:55:37;;;;;;;2.10;1.90;;;7.30;89.10;;;;;;5054444;28;20233;-58
2021/12/28 04:58:04;;;;;;;10.05;2.85;;;7.30;89.40;;;;;;5055719;28;20735;-59
2021/12/28 05:00:31;;;;;;;10.52;2.97;;;7.30;89.50;;;;;;5055667;28;20630;-58
2021/12/28 05:02:58;;;;;;;2.80;2.50;;;7.30;89.70;;;;;;5055404;28;20201;-57
2021/12/28 05:05:25;;;;;;;4.93;2.40;;;7.20;90.00;;;;;;5055721;28;20206;-61
2021/12/28 05:07:53;;;;;;;7.20;2.80;;;7.20;90.40;;;;;;5055325;28;20211;-60
2021/12/28 05:10:20;;;;;;;4.03;2.22;;;7.20;90.70;;;;;;5054000;28;20241;-60
2021/12/28 05:12:49;;;;;;;5.00;2.65;;;7.20;90.70;;;;;;5055426;28;20726;-57
2021/12/28 05:15:17;;;;;;;2.95;2.20;;;7.20;91.00;;;;;;5055323;28;20240;-60
2021/12/28 05:17:44;;;;;;;3.97;2.63;;;7.20;91.00;;;;;;5055239;28;20648;-60
2021/12/28 05:20:13;;;;;;;4.82;2.47;;;7.20;91.00;;;;;;5055156;28;20205;-60
2021/12/28 05:22:40;;;;;;;4.85;2.47;;;7.30;90.90;;;;;;5055206;28;20205;-57
2021/12/28 05:25:07;;;;;;;2.70;2.50;;;7.30;90.90;;;;;;5053770;28;20208;-60
2021/12/28 05:27:34;;;;;;;5.75;3.05;;;7.30;90.90;;;;;;5055348;28;20228;-59
2021/12/28 05:30:05;;;;;;;5.15;2.70;;;7.20;91.10;;;;;;5055177;28;20213;-60
2021/12/28 05:32:31;;;;;;;4.13;2.70;;;7.30;91.30;;;;;;5054971;28;20211;-58
2021/12/28 05:34:58;;;;;;;3.53;2.50;;;7.30;91.50;;;;;;5054836;28;20233;-59
2021/12/28 05:37:25;;;;;;;3.30;2.40;;;7.40;91.50;;;;;;5054975;28;20209;-59
2021/12/28 05:39:52;;;;;;;5.30;2.38;;;7.40;91.30;;;;;;5053648;28;20244;-59
2021/12/28 05:42:19;;;;;;;5.38;2.35;;;7.40;91.40;;;;;;5054875;28;20708;-60
2021/12/28 05:44:46;;;;;;;3.72;2.70;;;7.40;91.30;;;;;;5054858;28;20209;-60
2021/12/28 05:47:14;;;;;;;4.95;3.00;;;7.40;91.30;;;;;;5054682;28;20205;-57
2021/12/28 05:49:43;;;;;;;6.32;2.70;;;7.40;91.20;;;;;;5054583;28;20295;-59
2021/12/28 05:52:10;;;;;;;3.80;2.40;;;7.50;91.40;;;;;;5054781;28;20566;-59
2021/12/28 05:54:37;;;;;;;4.43;3.10;;;7.50;91.50;;;;;;5053318;28;20327;-58
2021/12/28 05:57:04;;;;;;;4.53;2.58;;;7.50;91.40;;;;;;5053690;28;20212;-59
2021/12/28 05:59:31;;;;;;;3.85;2.55;;;7.50;91.20;;;;;;5054462;28;20679;-56
2021/12/28 06:01:58;;;;;;;3.67;2.78;;;7.50;91.40;;;;;;5054288;28;20296;-59
2021/12/28 06:04:26;;;;;;;2.78;2.53;;;7.50;91.40;;;;;;5054522;28;20243;-58
2021/12/28 06:06:53;;;;;;;4.88;2.58;;;7.50;91.50;;;;;;5054393;28;20213;-58
2021/12/28 06:09:20;;;;;;;4.18;3.10;;;7.50;91.70;;;;;;5052818;28;20327;-60
2021/12/28 06:11:47;;;;;;;5.10;3.17;;;7.50;91.90;;;;;;5054267;28;20206;-58
2021/12/28 06:14:14;;;;;;;3.65;3.20;;;7.50;91.60;;;;;;5054211;28;20316;-60
2021/12/28 06:16:41;;;;;;;2.83;2.63;;;7.40;91.60;;;;;;5053981;28;20208;-60
2021/12/28 06:19:08;;;;;;;2.78;2.45;;;7.50;91.90;;;;;;5054237;28;20209;-59
2021/12/28 06:21:37;;;;;;;10.50;3.45;;;7.50;92.10;;;;;;5054186;28;20208;-57
2021/12/28 06:24:06;;;;;;;3.78;2.33;;;7.50;91.90;;;;;;5052847;28;20231;-58
2021/12/28 06:26:34;;;;;;;3.88;2.47;;;7.40;92.10;;;;;;5054046;28;20205;-59
2021/12/28 06:29:02;;;;;;;5.60;2.58;;;7.50;92.30;;;;;;5053976;28;20251;-55
2021/12/28 06:31:29;;;;;;;3.03;2.08;;;7.40;92.40;;;;;;5053732;28;20206;-60
2021/12/28 06:33:57;;;;;;;3.22;1.98;;;7.30;92.60;;;;;;5053846;28;20304;-58
2021/12/28 06:36:24;;;;;;;2.45;1.83;;;7.30;92.90;;;;;;5053774;28;20212;-62
2021/12/28 06:38:53;;;;;;;3.92;2.00;;;7.30;93.00;;;;;;5053755;28;20220;-60
2021/12/28 06:41:20;;;;;;;2.50;1.90;;;7.20;93.20;;;;;;5052694;28;20546;-60
2021/12/28 06:43:48;;;;;;;2.45;1.85;;;7.20;93.30;;;;;;5053629;28;20284;-63
2021/12/28 06:46:15;;;;;;;2.00;1.73;;;7.20;93.00;;;;;;5053389;28;20230;-58
2021/12/28 06:48:43;;;;;;;2.40;1.70;;;7.20;93.50;;;;;;5053630;28;20573;-57
2021/12/28 06:51:09;;;;;;;1.60;1.50;;;7.20;93.30;;;;;;5053634;28;20213;-57
2021/12/28 06:53:36;;;;;;;4.20;2.10;;;7.20;92.80;;;;;;5053456;28;20226;-60
2021/12/28 06:56:05;;;;;;;2.85;1.50;;;7.20;92.90;;;;;;5052028;28;20233;-59
2021/12/28 06:58:32;;;;;;;1.80;1.40;;;7.20;92.50;;;;;;5053382;28;20208;-56
2021/12/28 07:00:59;;;;;;;5.20;1.60;;;7.20;92.50;;;;;;5053340;28;20679;-60
2021/12/28 07:03:26;;;;;;;1.40;1.30;;;7.20;92.70;;;;;;5053281;28;20596;-58
2021/12/28 07:05:53;;;;;;;1.55;1.45;;;7.20;92.60;;;;;;5053329;28;20667;-56
2021/12/28 07:08:20;;;;;;;2.00;1.30;;;7.30;92.40;;;;;;5053072;28;20201;-57
2021/12/28 07:10:47;;;;;;;2.92;1.30;;;7.20;92.00;;;;;;5051759;28;20233;-58
2021/12/28 07:13:15;;;;;;;1.70;1.60;;;7.20;92.10;;;;;;5053215;28;20207;-58
2021/12/28 07:15:42;;;;;;;1.50;1.40;;;7.30;91.80;;;;;;5053161;28;20235;-55
2021/12/28 07:18:09;;;;;;;3.05;1.80;;;7.30;91.90;;;;;;5053039;28;20216;-58
2021/12/28 07:20:35;;;;;;;1.65;1.55;;;7.30;92.10;;;;;;5053115;28;20201;-57
2021/12/28 07:23:03;;;;;;;1.50;1.40;;;7.30;91.90;;;;;;5052992;28;20202;-58
2021/12/28 07:25:30;;;;;;;2.30;1.48;;;7.40;92.00;;;;;;5051737;28;20205;-59
2021/12/28 07:27:57;;;;;;;1.90;1.58;;;7.40;91.80;;;;;;5053046;28;20209;-54
2021/12/28 07:30:25;;;;;;;1.50;1.40;;;7.40;91.60;;;;;;5052954;28;20220;-54
2021/12/28 07:32:52;;;;;;;1.20;1.10;;;7.40;91.40;;;;;;5052732;28;20208;-59
2021/12/28 07:35:19;;;;;;;1.40;1.30;;;7.50;91.50;;;;;;5052779;28;20241;-58
2021/12/28 07:37:45;;;;;;;1.10;1.10;;;7.60;91.20;;;;;;5052846;28;20202;-57
2021/12/28 07:40:13;;;;;;;3.08;2.55;;;7.60;90.70;;;;;;5051453;28;20205;-54
2021/12/28 07:42:40;;;;;;;1.35;1.25;;;7.60;90.70;;;;;;5052847;28;20223;-60
2021/12/28 07:45:10;;;;;;;1.50;1.40;;;7.60;90.70;;;;;;5052797;28;20197;-55
2021/12/28 07:47:38;;;;;;;1.38;1.27;;;7.60;90.60;;;;;;5052700;28;20205;-58
2021/12/28 07:50:07;;;;;;;1.35;1.25;;;7.70;90.30;;;;;;5052803;28;20223;-55
2021/12/28 07:52:34;;;;;;;1.40;1.30;;;7.80;90.30;;;;;;5052524;28;20225;-57
2021/12/28 07:55:05;;;;;;;1.33;1.23;;;7.80;90.00;;;;;;5051310;28;20235;-57
2021/12/28 07:57:32;;;;;;;1.35;1.25;;;7.80;89.80;;;;;;5052579;28;20214;-56
2021/12/28 07:59:59;;;;;;;1.40;1.30;;;7.90;89.60;;;;;;5052698;28;20288;-58
2021/12/28 08:02:26;;;;;;;1.10;1.10;;;7.90;89.70;;;;;;5052483;28;20239;-59
2021/12/28 08:04:54;;;;;;;1.15;1.15;;;7.90;89.60;;;;;;5052549;28;20674;-58
2021/12/28 08:07:21;;;;;;;1.50;1.40;;;8.00;89.80;;;;;;5052386;28;20295;-56
2021/12/28 08:09:48;;;;;;;1.30;1.20;;;8.00;89.70;;;;;;5051050;28;20237;-59
2021/12/28 08:12:15;;;;;;;1.40;1.30;;;8.00;89.80;;;;;;5052620;28;20219;-57
2021/12/28 08:14:42;;;;;;;1.42;1.33;;;8.00;90.30;;;;;;5052422;28;20668;-57
2021/12/28 08:17:09;;;;;;;1.23;1.13;;;7.90;90.60;;;;;;5052393;28;20201;-56
2021/12/28 08:19:37;;;;;;;1.40;1.30;;;7.90;91.40;;;;;;5052372;28;20205;-56
2021/12/28 08:22:06;;;;;;;1.17;1.10;;;7.90;91.20;;;;;;5055596;28;20302;-57
2021/12/28 08:24:33;;;;;;;1.25;1.13;;;7.90;91.50;;;;;;5055003;28;20201;-58
2021/12/28 08:27:00;;;;;;;1.27;1.17;;;7.90;91.70;;;;;;5056287;28;20201;-57
2021/12/28 08:29:27;;;;;;;1.40;1.30;;;7.80;92.00;;;;;;5056255;28;20202;-61
2021/12/28 08:31:54;;;;;;;1.00;1.00;;;7.90;92.20;;;;;;5056018;28;20198;-57
2021/12/28 08:34:21;;;;;;;1.00;1.00;;;7.90;91.80;;;;;;5055983;28;20679;-59
2021/12/28 08:36:48;;;;;;;1.00;1.00;;;7.90;91.70;;;;;;5056108;28;20233;-60
2021/12/28 08:39:16;;;;;;;1.20;1.10;;;7.90;91.30;;;;;;5054775;28;20209;-59
2021/12/28 08:41:43;;;;;;;1.08;1.08;;;7.90;91.90;;;;;;5056029;28;20207;-56
2021/12/28 08:44:10;;;;;;;1.08;1.08;;;7.80;91.80;;;;;;5055933;28;20205;-59
2021/12/28 08:46:37;;;;;;;1.45;1.20;;;7.90;91.90;;;;;;5055750;28;20682;-58
2021/12/28 08:49:05;;;;;;;1.30;1.20;;;7.90;92.00;;;;;;5055887;28;20208;-56
2021/12/28 08:51:32;;;;;;;0.93;0.93;;;7.90;91.70;;;;;;5055802;28;20284;-63
2021/12/28 08:53:59;;;;;;;1.23;1.13;;;8.00;91.80;;;;;;5055148;28;20538;-56
2021/12/28 08:56:27;;;;;;;1.63;1.02;;;8.00;91.70;;;;;;5055723;28;20229;-54
2021/12/28 08:58:54;;;;;;;0.90;0.90;;;8.10;91.50;;;;;;5055751;28;20204;-57
2021/12/28 09:01:21;;;;;;;1.30;1.20;;;8.10;91.50;;;;;;5055633;28;20205;-53
2021/12/28 09:03:48;;;;;;;1.30;1.20;;;8.10;91.90;;;;;;5055469;28;20201;-56
2021/12/28 09:06:15;;;;;;;1.00;1.00;;;8.10;91.40;;;;;;5055604;28;20209;-62
2021/12/28 09:08:42;;;;;;;1.20;1.10;;;8.20;91.90;;;;;;5055340;28;20220;-55
2021/12/28 09:11:09;;;;;;;1.35;1.25;;;8.20;91.50;;;;;;5054091;28;20233;-59
2021/12/28 09:13:37;;;;;;;1.30;1.20;;;8.30;91.50;;;;;;5055558;28;20202;-57
2021/12/28 09:16:05;;;;;;;1.83;1.30;;;8.40;91.30;;;;;;5055208;28;20233;-58
2021/12/28 09:18:32;;;;;;;1.10;1.10;;;8.40;91.20;;;;;;5055272;28;20219;-56
2021/12/28 09:20:59;;;;;;;1.10;1.10;;;8.40;90.70;;;;;;5055281;28;20201;-58
2021/12/28 09:23:26;;;;;;;1.00;1.00;;;8.40;92.10;;;;;;5055293;28;20211;-59
2021/12/28 09:25:53;;;;;;;1.10;1.00;;;8.40;91.20;;;;;;5053902;28;20209;-58
2021/12/28 09:28:20;;;;;;;1.10;1.00;;;8.50;91.20;;;;;;5055125;28;20208;-62
2021/12/28 09:30:49;;;;;;;1.10;1.10;;;8.60;91.20;;;;;;5055109;28;20212;-57
2021/12/28 09:33:16;;;;;;;1.00;1.00;;;8.60;91.40;;;;;;5054786;28;20660;-60
2021/12/28 09:35:43;;;;;;;1.30;1.20;;;8.70;91.00;;;;;;5054864;28;20584;-59
2021/12/28 09:38:10;;;;;;;1.85;1.75;;;8.70;91.00;;;;;;5054918;28;20215;-57
2021/12/28 09:40:37;;;;;;;1.65;1.55;;;8.90;90.90;;;;;;5053706;28;20205;-61
2021/12/28 09:43:05;;;;;;;2.85;1.35;;;8.90;90.40;;;;;;5054791;28;20208;-61
2021/12/28 09:45:33;;;;;;;1.30;1.20;;;8.90;91.00;;;;;;5054774;28;20209;-61
2021/12/28 09:48:02;;;;;;;1.40;1.30;;;8.90;90.80;;;;;;5054662;28;20255;-55
2021/12/28 09:50:29;;;;;;;1.30;1.20;;;8.90;90.70;;;;;;5054695;28;20205;-63
2021/12/28 09:52:56;;;;;;;1.23;1.13;;;8.90;91.10;;;;;;5054586;28;20305;-53
2021/12/28 09:55:25;;;;;;;1.10;1.10;;;8.90;91.00;;;;;;5053233;28;20320;-59
2021/12/28 09:57:52;;;;;;;1.10;1.10;;;8.90;91.30;;;;;;5054492;28;20205;-60
2021/12/28 10:00:22;;;;;;;1.20;1.10;;;9.00;91.40;;;;;;5054776;28;20205;-58
2021/12/28 10:02:49;;;;;;;1.20;1.10;;;9.20;91.10;;;;;;5054359;28;20648;-59
2021/12/28 10:05:20;;;;;;;1.10;1.10;;;9.20;90.40;;;;;;5054367;28;20312;-58
2021/12/28 10:07:50;;;;;;;1.25;1.15;;;9.20;90.50;;;;;;5054448;28;20197;-60
2021/12/28 10:10:18;;;;;;;1.35;1.10;;;9.20;90.60;;;;;;5052899;28;20233;-57
2021/12/28 10:12:49;;;;;;;1.30;1.20;;;9.30;90.60;;;;;;5054282;28;20559;-61
2021/12/28 10:15:20;;;;;;;1.50;1.40;;;9.40;90.00;;;;;;5054237;28;20205;-62
2021/12/28 10:17:50;;;;;;;1.52;1.42;;;9.50;90.30;;;;;;5054132;28;20232;-60
2021/12/28 10:20:20;;;;;;;1.45;1.35;;;9.50;90.50;;;;;;5054266;28;20563;-58
2021/12/28 10:22:49;;;;;;;1.33;1.23;;;9.60;90.10;;;;;;5053981;28;20201;-60
2021/12/28 10:25:18;;;;;;;2.10;1.35;;;9.70;89.40;;;;;;5052770;28;20206;-60
2021/12/28 10:27:46;;;;;;;1.70;1.50;;;9.70;89.90;;;;;;5054108;28;20197;-58
2021/12/28 10:30:16;;;;;;;1.65;1.55;;;9.70;89.80;;;;;;5054013;28;20216;-60
2021/12/28 10:32:45;;;;;;;1.40;1.30;;;9.70;89.90;;;;;;5053891;28;20663;-59
2021/12/28 10:35:14;;;;;;;1.30;1.20;;;9.70;90.10;;;;;;5053727;28;20240;-54
2021/12/28 10:37:47;;;;;;;2.47;1.48;;;9.70;90.50;;;;;;5053848;28;20209;-59
2021/12/28 10:40:21;;;;;;;1.10;1.10;;;9.80;90.20;;;;;;5052592;28;20204;-59
2021/12/28 10:42:52;;;;;;;1.35;1.25;;;9.90;90.50;;;;;;5053480;28;20201;-57
2021/12/28 10:45:22;;;;;;;1.27;1.17;;;9.90;90.40;;;;;;5053634;28;20205;-60
2021/12/28 10:47:51;;;;;;;1.10;1.00;;;10.00;90.60;;;;;;5053562;28;20205;-60
2021/12/28 10:50:22;;;;;;;1.20;1.10;;;10.00;91.00;;;;;;5053572;28;20228;-59
2021/12/28 10:53:00;;;;;;;2.03;1.20;;;10.10;90.40;;;;;;5053476;28;20231;-57
2021/12/28 10:55:28;;;;;;;1.23;1.13;;;10.20;90.50;;;;;;5052238;28;20292;-62
2021/12/28 10:57:55;;;;;;;2.35;1.20;;;10.20;90.00;;;;;;5053426;28;20566;-59
2021/12/28 11:00:29;;;;;;;1.65;1.10;;;10.10;90.50;;;;;;5053286;28;20201;-60
2021/12/28 11:03:35;;;;;;;1.35;1.25;;;10.10;90.40;;;;;;5053243;28;20213;-55
2021/12/28 11:06:17;;;;;;;1.60;1.50;;;10.20;90.70;;;;;;5042848;28;20205;-57
2021/12/28 11:08:48;;;;;;;0.98;0.98;;;10.30;90.50;;;;;;5053177;28;20216;-59
2021/12/28 11:11:19;;;;;;;1.30;1.20;;;10.40;89.90;;;;;;5051936;28;20320;-58
2021/12/28 11:13:46;;;;;;;2.33;1.58;;;10.70;89.40;;;;;;5053165;28;20201;-55
2021/12/28 11:16:15;;;;;;;1.58;1.48;;;11.10;87.40;;;;;;5053109;28;20228;-60
2021/12/28 11:18:43;;;;;;;1.70;1.60;;;11.50;86.60;;;;;;5053010;28;20216;-60
2021/12/28 11:21:14;;;;;;;1.85;1.75;;;12.20;83.90;;;;;;5052868;28;20675;-56
2021/12/28 11:23:41;;;;;;;2.28;2.17;;;12.90;81.00;;;;;;5052942;28;20213;-58
2021/12/28 11:26:16;;;;;;;2.50;2.40;;;13.00;80.20;;;;;;5051944;28;20212;-61
2021/12/28 11:28:52;;;;;;;2.33;2.22;;;13.00;80.00;;;;;;5053020;28;20211;-61
2021/12/28 11:31:22;;;;;;;2.70;2.60;;;13.00;79.70;;;;;;5053029;28;20201;-64
2021/12/28 11:33:54;;;;;;;3.40;3.30;;;13.00;79.50;;;;;;5052644;28;20554;-61
2021/12/28 11:36:24;;;;;;;2.83;2.63;;;12.40;81.50;;;;;;5052799;28;20315;-62
2021/12/28 11:38:52;;;;;;;2.30;2.20;;;11.80;84.20;;;;;;5052800;28;20215;-59
2021/12/28 11:41:20;;;;;;;2.00;1.90;;;11.50;85.60;;;;;;5051614;28;20202;-58
2021/12/28 11:43:48;;;;;;;1.90;1.80;;;11.40;86.70;;;;;;5052851;28;20569;-57
2021/12/28 11:46:15;;;;;;;1.52;1.42;;;11.20;87.50;;;;;;5052695;28;20212;-55
2021/12/28 11:48:43;;;;;;;1.80;1.70;;;11.00;88.50;;;;;;5052588;28;20283;-56
2021/12/28 11:51:11;;;;;;;1.67;1.58;;;10.90;88.70;;;;;;5052630;28;20233;-58
2021/12/28 11:53:41;;;;;;;1.65;1.55;;;11.00;88.90;;;;;;5052737;28;20201;-56
2021/12/28 11:56:10;;;;;;;1.50;1.40;;;10.90;88.80;;;;;;5053310;28;20229;-63
2021/12/28 11:58:58;;;;;;;1.50;1.40;;;10.80;89.80;;;;;;5056755;28;20568;-59
2021/12/28 12:01:56;;;;;;;1.40;1.30;;;10.70;90.00;;;;;;5056828;28;20248;-57
2021/12/28 12:04:56;;;;;;;1.30;1.20;;;10.60;90.40;;;;;;5056571;28;20233;-58
2021/12/28 12:07:30;;;;;;;1.30;1.20;;;10.60;90.60;;;;;;5056644;28;20288;-59
2021/12/28 12:10:26;;;;;;;1.30;1.20;;;10.60;90.90;;;;;;5055315;28;20232;-57
2021/12/28 12:12:57;;;;;;;1.20;1.10;;;10.60;90.90;;;;;;5056647;28;20252;-60
2021/12/28 12:15:27;;;;;;;1.40;1.27;;;10.60;91.20;;;;;;5056455;28;20205;-62
2021/12/28 12:18:01;;;;;;;1.15;1.05;;;10.60;91.60;;;;;;5056231;28;20267;-60
2021/12/28 12:20:33;;;;;;;1.30;1.20;;;10.50;92.20;;;;;;5056474;28;20202;-60
2021/12/28 12:23:22;;;;;;;1.33;1.17;;;10.50;93.00;;;;;;5056408;28;20292;-58
2021/12/28 12:25:59;;;;;;;1.60;1.50;;;10.40;93.10;;;;;;5052105;28;20299;-57
2021/12/28 12:28:38;;;;;;;1.20;1.20;;;10.20;93.70;;;;;;5056208;28;20759;-56
2021/12/28 12:31:09;;;;;;;2.15;1.20;;;10.20;94.30;;;;;;5056293;28;20270;-58
2021/12/28 12:33:42;;;;;;;1.30;1.20;;;10.30;94.70;;;;;;5056035;28;20201;-58
2021/12/28 12:36:19;;;;;;;1.38;1.27;;;10.40;94.20;;;;;;5056123;28;20229;-57
2021/12/28 12:38:46;;;;;;;2.15;1.52;;;10.40;94.20;;;;;;5056070;28;20209;-58
2021/12/28 12:41:17;;;;;;;2.13;1.50;;;10.60;94.10;;;;;;5054797;28;20663;-59
2021/12/28 12:43:51;;;;;;;1.52;1.17;;;10.60;93.80;;;;;;5056250;28;20548;-56
2021/12/28 12:46:26;;;;;;;1.55;1.20;;;10.60;93.50;;;;;;5055982;28;20259;-57
2021/12/28 12:49:19;;;;;;;1.40;1.30;;;10.60;93.40;;;;;;5055568;28;20207;-59
2021/12/28 12:51:52;;;;;;;1.30;1.20;;;10.50;93.30;;;;;;5055839;28;20566;-56
2021/12/28 12:54:29;;;;;;;1.30;1.20;;;10.40;93.50;;;;;;5054495;28;20205;-59
2021/12/28 12:57:05;;;;;;;1.95;1.23;;;10.30;94.00;;;;;;5055621;28;20233;-58
2021/12/28 12:59:39;;;;;;;1.58;1.40;;;10.40;94.20;;;;;;5055724;28;20571;-59
2021/12/28 13:02:09;;;;;;;1.42;1.33;;;10.40;93.80;;;;;;5055750;28;20204;-58
2021/12/28 13:04:51;;;;;;;1.42;1.20;;;10.40;93.10;;;;;;5055448;28;20202;-57